createdAt,value
2022-10-22T00:01:08.670Z,9.90
2022-10-22T00:03:39.190Z,10.20
2022-10-22T00:06:07.282Z,8.60
2022-10-22T00:08:35.206Z,8.50
2022-10-22T00:11:29.329Z,8.60
2022-10-22T00:13:58.102Z,9.20
2022-10-22T00:16:25.957Z,10.50
2022-10-22T00:18:53.604Z,9.90
2022-10-22T00:21:21.395Z,9.70
2022-10-22T00:23:49.183Z,8.20
2022-10-22T00:26:16.827Z,6.80
2022-10-22T00:28:44.465Z,8.80
2022-10-22T00:31:12.166Z,8.60
2022-10-22T00:33:39.755Z,8.00
2022-10-22T00:36:08.232Z,10.20
2022-10-22T00:38:36.211Z,9.20
2022-10-22T00:41:03.868Z,9.20
2022-10-22T00:43:31.487Z,8.00
2022-10-22T00:45:59.111Z,8.60
2022-10-22T00:48:30.066Z,7.50
2022-10-22T00:51:07.386Z,7.40
2022-10-22T00:53:40.056Z,7.40
2022-10-22T00:56:09.238Z,10.10
2022-10-22T00:58:41.948Z,9.10
2022-10-22T01:01:16.428Z,8.60
2022-10-22T01:03:44.192Z,8.80
2022-10-22T01:06:18.417Z,8.40
2022-10-22T01:09:08.057Z,8.20
2022-10-22T01:12:14.773Z,7.20
2022-10-22T01:14:54.240Z,7.90
2022-10-22T01:17:30.018Z,8.20
2022-10-22T01:20:00.774Z,8.40
2022-10-22T01:22:54.952Z,9.70
2022-10-22T01:28:11.851Z,7.60
2022-10-22T01:30:41.180Z,7.70
2022-10-22T01:33:12.676Z,8.40
2022-10-22T01:35:44.338Z,7.60
2022-10-22T01:38:22.132Z,9.00
2022-10-22T01:40:51.441Z,9.40
2022-10-22T01:43:19.244Z,7.50
2022-10-22T01:45:54.172Z,7.40
2022-10-22T01:48:43.315Z,8.00
2022-10-22T01:51:29.699Z,6.80
2022-10-22T01:54:59.288Z,7.10
2022-10-22T01:57:41.351Z,9.00
2022-10-22T02:00:15.360Z,8.20
2022-10-22T02:02:51.126Z,8.10
2022-10-22T02:05:30.247Z,7.30
2022-10-22T02:08:03.203Z,6.40
2022-10-22T02:10:31.316Z,7.10
2022-10-22T02:13:01.402Z,8.00
2022-10-22T02:15:32.410Z,9.60
2022-10-22T02:18:01.345Z,8.40
2022-10-22T02:20:33.000Z,9.10
2022-10-22T02:23:01.708Z,6.60
2022-10-22T02:25:34.483Z,7.10
2022-10-22T02:28:18.346Z,6.20
2022-10-22T02:30:54.263Z,7.00
2022-10-22T02:33:28.693Z,9.90
2022-10-22T02:35:58.273Z,9.20
2022-10-22T02:38:28.264Z,9.90
2022-10-22T02:40:57.623Z,9.40
2022-10-22T02:43:25.624Z,7.70
2022-10-22T02:45:53.296Z,7.60
2022-10-22T02:50:53.555Z,9.00
2022-10-22T02:53:21.275Z,8.80
2022-10-22T02:55:49.045Z,7.50
2022-10-22T02:58:16.923Z,6.90
2022-10-22T03:00:44.664Z,8.30
2022-10-22T03:03:12.400Z,6.20
2022-10-22T03:05:40.129Z,6.20
2022-10-22T03:08:07.950Z,6.80
2022-10-22T03:10:35.635Z,8.10
2022-10-22T03:13:03.267Z,7.00
2022-10-22T03:15:30.872Z,6.60
2022-10-22T03:17:58.671Z,6.30
2022-10-22T03:20:26.474Z,5.70
2022-10-22T03:22:55.146Z,5.90
2022-10-22T03:25:25.254Z,8.00
2022-10-22T03:27:56.428Z,7.90
2022-10-22T03:30:24.010Z,7.90
2022-10-22T03:32:51.622Z,7.70
2022-10-22T03:35:19.281Z,7.00
2022-10-22T03:37:47.052Z,7.10
2022-10-22T03:40:15.140Z,7.20
2022-10-22T03:42:43.093Z,9.60
2022-10-22T03:45:11.216Z,9.30
2022-10-22T03:47:39.177Z,8.10
2022-10-22T03:50:07.929Z,8.20
2022-10-22T03:52:37.692Z,7.70
2022-10-22T03:55:06.949Z,5.80
2022-10-22T03:57:34.844Z,7.00
2022-10-22T04:00:04.946Z,9.70
2022-10-22T04:02:32.786Z,8.90
2022-10-22T04:05:00.733Z,8.70
2022-10-22T04:07:28.574Z,8.20
2022-10-22T04:09:56.235Z,9.00
2022-10-22T04:12:23.924Z,8.50
2022-10-22T04:14:51.714Z,8.40
2022-10-22T04:17:19.378Z,9.70
2022-10-22T04:19:47.072Z,9.60
2022-10-22T04:22:14.683Z,8.40
2022-10-22T04:24:42.298Z,7.50
2022-10-22T04:27:09.940Z,8.20
2022-10-22T04:29:37.606Z,8.40
2022-10-22T04:32:05.302Z,7.20
2022-10-22T04:34:33.000Z,9.90
2022-10-22T04:37:00.615Z,9.70
2022-10-22T04:39:28.407Z,9.20
2022-10-22T04:41:56.223Z,8.30
2022-10-22T04:44:23.939Z,7.90
2022-10-22T04:46:51.716Z,7.40
2022-10-22T04:49:19.778Z,7.70
2022-10-22T04:51:47.372Z,8.80
2022-10-22T04:54:15.281Z,9.10
2022-10-22T04:56:42.995Z,8.80
2022-10-22T04:59:12.745Z,8.20
2022-10-22T05:01:43.850Z,7.80
2022-10-22T05:04:14.803Z,7.70
2022-10-22T05:06:43.242Z,7.30
2022-10-22T05:09:14.033Z,8.90
2022-10-22T05:11:46.156Z,9.40
2022-10-22T05:14:17.178Z,9.10
2022-10-22T05:16:48.259Z,7.50
2022-10-22T05:19:25.958Z,8.30
2022-10-22T05:21:55.759Z,7.70
2022-10-22T05:24:23.713Z,8.60
2022-10-22T05:26:53.257Z,9.40
2022-10-22T05:29:21.586Z,10.60
2022-10-22T05:31:49.240Z,8.80
2022-10-22T05:34:17.492Z,7.80
2022-10-22T05:36:45.606Z,7.30
2022-10-22T05:39:13.362Z,6.60
2022-10-22T05:41:42.495Z,8.40
2022-10-22T05:44:11.917Z,7.10
2022-10-22T05:51:36.764Z,8.20
2022-10-22T05:54:07.534Z,7.80
2022-10-22T05:56:37.003Z,7.40
2022-10-22T06:01:35.458Z,6.90
2022-10-22T06:04:06.512Z,7.10
2022-10-22T06:06:35.723Z,8.90
2022-10-22T06:09:23.808Z,9.10
2022-10-22T06:11:51.938Z,7.90
2022-10-22T06:14:20.573Z,7.90
2022-10-22T06:16:49.623Z,7.40
2022-10-22T06:19:20.328Z,7.20
2022-10-22T06:21:48.651Z,6.90
2022-10-22T06:24:16.592Z,8.40
2022-10-22T06:26:44.772Z,9.20
2022-10-22T06:29:12.420Z,7.70
2022-10-22T06:31:40.039Z,7.60
2022-10-22T06:34:12.703Z,6.10
2022-10-22T06:36:42.807Z,7.00
2022-10-22T06:39:15.989Z,6.50
2022-10-22T06:41:43.753Z,8.00
2022-10-22T06:44:19.299Z,9.20
2022-10-22T06:49:17.506Z,7.80
2022-10-22T06:51:45.657Z,5.80
2022-10-22T06:54:13.315Z,6.70
2022-10-22T06:56:41.044Z,7.00
2022-10-22T06:59:08.759Z,8.30
2022-10-22T07:01:36.992Z,8.50
2022-10-22T07:04:05.120Z,8.40
2022-10-22T07:06:32.883Z,7.70
2022-10-22T07:09:00.761Z,6.20
2022-10-22T07:11:31.341Z,7.40
2022-10-22T07:14:01.062Z,7.20
2022-10-22T07:16:31.264Z,7.30
2022-10-22T07:19:01.508Z,9.10
2022-10-22T07:21:30.525Z,7.70
2022-10-22T07:23:59.236Z,8.80
2022-10-22T07:26:30.616Z,7.20
2022-10-22T07:29:02.987Z,7.00
2022-10-22T07:31:31.439Z,7.30
2022-10-22T07:33:59.071Z,6.90
2022-10-22T07:36:27.004Z,5.60
2022-10-22T07:38:58.490Z,8.70
2022-10-22T07:41:27.874Z,8.10
2022-10-22T07:46:24.674Z,6.40
2022-10-22T07:48:52.776Z,7.10
2022-10-22T07:51:20.495Z,5.70
2022-10-22T07:53:48.314Z,7.00
2022-10-22T07:56:16.227Z,6.50
2022-10-22T07:58:44.885Z,7.70
2022-10-22T08:01:12.650Z,8.20
2022-10-22T08:03:40.361Z,7.00
2022-10-22T08:06:09.973Z,7.40
2022-10-22T08:08:37.694Z,7.10
2022-10-22T08:11:05.710Z,6.50
2022-10-22T08:13:33.333Z,6.90
2022-10-22T08:16:01.567Z,7.50
2022-10-22T08:18:29.603Z,7.90
2022-10-22T08:20:57.544Z,7.40
2022-10-22T08:23:27.486Z,8.70
2022-10-22T08:25:57.608Z,7.00
2022-10-22T08:28:26.037Z,7.30
2022-10-22T08:30:53.697Z,7.70
2022-10-22T08:33:21.647Z,8.40
2022-10-22T08:35:51.449Z,5.60
2022-10-22T08:38:19.905Z,8.30
2022-10-22T08:40:53.021Z,7.90
2022-10-22T08:43:39.537Z,9.00
2022-10-22T08:46:08.361Z,8.20
2022-10-22T08:48:56.227Z,8.40
2022-10-22T08:51:27.425Z,7.70
2022-10-22T08:54:17.148Z,8.00
2022-10-22T08:56:51.145Z,7.70
2022-10-22T08:59:26.141Z,8.40
2022-10-22T09:01:54.776Z,8.60
2022-10-22T09:04:30.911Z,8.80
2022-10-22T09:07:00.077Z,7.30
2022-10-22T09:09:35.249Z,7.60
2022-10-22T09:12:07.211Z,7.60
2022-10-22T09:14:35.087Z,8.10
2022-10-22T09:17:03.125Z,6.00
2022-10-22T09:19:49.708Z,8.50
2022-10-22T09:22:51.020Z,8.50
2022-10-22T09:25:25.857Z,8.90
2022-10-22T09:27:58.324Z,7.30
2022-10-22T09:30:33.498Z,6.50
2022-10-22T09:33:01.340Z,6.80
2022-10-22T09:35:34.496Z,7.80
2022-10-22T09:38:08.481Z,7.70
2022-10-22T09:40:57.498Z,7.10
2022-10-22T09:43:25.503Z,8.10
2022-10-22T09:46:17.804Z,7.70
2022-10-22T09:49:11.901Z,7.10
2022-10-22T09:51:51.970Z,7.80
2022-10-22T09:54:24.568Z,6.90
2022-10-22T09:56:57.201Z,7.10
2022-10-22T09:59:28.937Z,7.90
2022-10-22T10:02:13.748Z,8.20
2022-10-22T10:04:51.017Z,8.30
2022-10-22T10:07:21.380Z,8.90
2022-10-22T10:09:49.825Z,8.50
2022-10-22T10:12:29.543Z,6.90
2022-10-22T10:15:13.593Z,8.00
2022-10-22T10:18:00.490Z,8.00
2022-10-22T10:20:31.166Z,7.70
2022-10-22T10:23:07.605Z,8.40
2022-10-22T10:25:37.849Z,9.00
2022-10-22T10:28:33.939Z,8.50
2022-10-22T10:31:27.712Z,8.00
2022-10-22T10:34:13.114Z,7.10
2022-10-22T10:37:01.467Z,7.80
2022-10-22T10:39:38.196Z,7.50
2022-10-22T10:42:11.990Z,6.90
2022-10-22T10:45:17.233Z,8.60
2022-10-22T10:48:40.533Z,8.70
2022-10-22T10:51:40.720Z,8.00
2022-10-22T10:54:27.826Z,7.40
2022-10-22T10:57:07.991Z,8.20
2022-10-22T10:59:41.979Z,7.00
2022-10-22T11:02:34.554Z,8.10
2022-10-22T11:05:14.174Z,9.00
2022-10-22T11:07:49.917Z,9.60
2022-10-22T11:10:30.353Z,8.40
2022-10-22T11:13:06.939Z,8.60
2022-10-22T11:15:37.514Z,8.70
2022-10-22T11:18:13.930Z,9.10
2022-10-22T11:20:49.279Z,7.70
2022-10-22T11:23:34.011Z,7.70
2022-10-22T11:26:02.917Z,9.30
2022-10-22T11:28:59.086Z,9.30
2022-10-22T11:31:27.757Z,8.70
2022-10-22T11:34:33.234Z,9.00
2022-10-22T11:37:03.152Z,9.70
2022-10-22T11:39:49.016Z,8.30
2022-10-22T11:42:22.810Z,10.10
2022-10-22T11:45:06.253Z,7.80
2022-10-22T11:47:51.741Z,11.10
2022-10-22T11:50:25.438Z,11.40
2022-10-22T11:53:02.625Z,10.10
2022-10-22T11:55:55.462Z,8.80
2022-10-22T11:58:27.392Z,9.20
2022-10-22T12:01:18.474Z,9.30
2022-10-22T12:03:50.741Z,9.90
2022-10-22T12:06:29.180Z,10.30
2022-10-22T12:09:01.534Z,10.50
2022-10-22T12:11:29.277Z,11.20
2022-10-22T12:14:40.687Z,10.40
2022-10-22T12:17:14.415Z,10.40
2022-10-22T12:19:49.461Z,10.10
2022-10-22T12:22:21.477Z,10.10
2022-10-22T12:24:51.493Z,9.60
2022-10-22T12:27:24.778Z,11.90
2022-10-22T12:30:00.993Z,10.80
2022-10-22T12:32:37.637Z,10.90
2022-10-22T12:35:20.509Z,10.70
2022-10-22T12:37:53.085Z,9.50
2022-10-22T12:40:47.687Z,10.70
2022-10-22T12:43:25.605Z,10.50
2022-10-22T12:45:54.595Z,11.10
2022-10-22T12:48:37.370Z,11.60
2022-10-22T12:51:08.237Z,11.50
2022-10-22T12:53:39.306Z,10.20
2022-10-22T12:56:12.337Z,9.40
2022-10-22T12:58:46.946Z,11.00
2022-10-22T13:01:17.345Z,9.70
2022-10-22T13:03:50.419Z,9.80
2022-10-22T13:06:22.397Z,11.40
2022-10-22T13:09:00.333Z,10.20
2022-10-22T13:11:33.873Z,10.20
2022-10-22T13:14:04.089Z,10.60
2022-10-22T13:16:32.260Z,10.90
2022-10-22T13:18:59.977Z,9.50
2022-10-22T13:21:48.800Z,10.90
2022-10-22T13:24:22.198Z,12.50
2022-10-22T13:26:53.099Z,12.30
2022-10-22T13:29:23.449Z,11.70
2022-10-22T13:31:53.442Z,11.60
2022-10-22T13:34:24.903Z,10.00
2022-10-22T13:36:52.677Z,11.30
2022-10-22T13:39:22.981Z,10.60
2022-10-22T13:41:51.761Z,13.00
2022-10-22T13:44:19.938Z,12.60
2022-10-22T13:46:48.454Z,11.50
2022-10-22T13:49:19.291Z,11.50
2022-10-22T13:51:47.622Z,11.30
2022-10-22T13:54:25.110Z,11.30
2022-10-22T13:56:53.725Z,12.10
2022-10-22T13:59:23.779Z,10.90
2022-10-22T14:01:52.491Z,11.90
2022-10-22T14:04:20.285Z,10.80
2022-10-22T14:06:47.988Z,11.50
2022-10-22T14:09:16.480Z,10.30
2022-10-22T14:11:44.342Z,10.20
2022-10-22T14:14:14.294Z,10.60
2022-10-22T14:16:42.096Z,9.90
2022-10-22T14:19:16.443Z,11.60
2022-10-22T14:21:44.159Z,11.30
2022-10-22T14:24:13.259Z,12.30
2022-10-22T14:26:41.811Z,10.70
2022-10-22T14:29:10.768Z,11.20
2022-10-22T14:31:42.181Z,11.40
2022-10-22T14:34:15.304Z,11.80
2022-10-22T14:36:44.131Z,10.90
2022-10-22T14:39:12.953Z,10.80
2022-10-22T14:41:41.274Z,10.60
2022-10-22T14:44:13.949Z,12.00
2022-10-22T14:46:44.164Z,11.30
2022-10-22T14:49:13.153Z,10.60
2022-10-22T14:51:41.224Z,11.10
2022-10-22T14:54:08.939Z,12.40
2022-10-22T14:59:10.482Z,11.40
2022-10-22T15:01:39.346Z,11.50
2022-10-22T15:04:06.965Z,11.40
2022-10-22T15:06:35.560Z,10.80
2022-10-22T15:09:03.677Z,11.60
2022-10-22T15:11:31.332Z,12.10
2022-10-22T15:13:59.034Z,12.10
2022-10-22T15:16:26.743Z,11.20
2022-10-22T15:18:54.646Z,11.40
2022-10-22T15:21:23.090Z,12.30
2022-10-22T15:23:50.846Z,12.50
2022-10-22T15:26:19.156Z,11.80
2022-10-22T15:28:46.964Z,13.00
2022-10-22T15:31:14.986Z,12.80
2022-10-22T15:33:43.763Z,13.70
2022-10-22T15:36:15.205Z,12.60
2022-10-22T15:38:45.139Z,13.00
2022-10-22T15:41:13.481Z,13.50
2022-10-22T15:43:41.324Z,13.80
2022-10-22T15:46:10.512Z,14.20
2022-10-22T15:48:38.543Z,13.00
2022-10-22T15:51:14.690Z,12.30
2022-10-22T15:53:43.191Z,12.60
2022-10-22T15:56:14.424Z,13.20
2022-10-22T15:58:42.190Z,13.50
2022-10-22T16:01:13.080Z,13.00
2022-10-22T16:03:41.439Z,14.70
2022-10-22T16:06:09.799Z,14.00
2022-10-22T16:08:38.332Z,13.50
2022-10-22T16:11:06.131Z,14.30
2022-10-22T16:13:35.991Z,15.00
2022-10-22T16:16:08.046Z,14.40
2022-10-22T16:18:35.773Z,14.30
2022-10-22T16:21:04.193Z,14.50
2022-10-22T16:23:31.889Z,14.10
2022-10-22T16:26:02.569Z,13.60
2022-10-22T16:28:30.424Z,12.80
2022-10-22T16:31:06.196Z,13.70
2022-10-22T16:33:41.464Z,14.00
2022-10-22T16:36:14.690Z,13.80
2022-10-22T16:38:42.624Z,16.50
2022-10-22T16:41:15.645Z,13.90
2022-10-22T16:43:47.002Z,14.00
2022-10-22T16:46:20.393Z,15.80
2022-10-22T16:48:50.491Z,15.30
2022-10-22T16:51:21.874Z,16.10
2022-10-22T16:53:52.345Z,14.40
2022-10-22T16:56:20.647Z,15.40
2022-10-22T16:58:51.128Z,16.30
2022-10-22T17:01:21.515Z,15.40
2022-10-22T17:03:49.251Z,14.00
2022-10-22T17:06:16.884Z,16.10
2022-10-22T17:08:44.638Z,14.50
2022-10-22T17:11:17.913Z,14.70
2022-10-22T17:13:49.077Z,15.70
2022-10-22T17:16:20.278Z,15.70
2022-10-22T17:18:48.293Z,15.20
2022-10-22T17:21:16.199Z,14.00
2022-10-22T17:23:44.289Z,14.60
2022-10-22T17:26:22.785Z,14.90
2022-10-22T17:28:50.743Z,14.20
2022-10-22T17:31:27.068Z,15.50
2022-10-22T17:33:57.116Z,16.80
2022-10-22T17:36:27.515Z,14.10
2022-10-22T17:38:59.194Z,14.70
2022-10-22T17:41:29.868Z,15.60
2022-10-22T17:44:01.359Z,14.50
2022-10-22T17:46:31.314Z,15.70
2022-10-22T17:49:04.835Z,15.30
2022-10-22T17:51:33.034Z,16.00
2022-10-22T17:54:02.435Z,14.00
2022-10-22T17:56:32.354Z,13.80
2022-10-22T17:59:00.133Z,14.10
2022-10-22T18:01:33.643Z,13.70
2022-10-22T18:04:07.806Z,14.90
2022-10-22T18:06:36.085Z,16.30
2022-10-22T18:09:08.020Z,14.30
2022-10-22T18:11:37.317Z,15.30
2022-10-22T18:16:33.156Z,13.80
2022-10-22T18:19:00.933Z,15.90
2022-10-22T18:21:30.453Z,15.70
2022-10-22T18:23:59.655Z,14.90
2022-10-22T18:26:27.468Z,14.90
2022-10-22T18:28:57.115Z,15.80
2022-10-22T18:31:26.513Z,14.30
2022-10-22T18:36:29.166Z,16.00
2022-10-22T18:38:59.402Z,15.10
2022-10-22T18:41:29.540Z,13.40
2022-10-22T18:44:00.040Z,15.70
2022-10-22T18:46:29.639Z,14.00
2022-10-22T18:48:58.733Z,15.50
2022-10-22T18:51:34.513Z,15.00
2022-10-22T18:54:21.639Z,16.10
2022-10-22T18:56:50.784Z,14.10
2022-10-22T18:59:21.398Z,13.80
2022-10-22T19:01:51.385Z,12.70
2022-10-22T19:04:19.282Z,13.50
2022-10-22T19:06:47.008Z,12.80
2022-10-22T19:09:15.543Z,11.70
2022-10-22T19:11:46.353Z,12.10
2022-10-22T19:14:14.996Z,12.00
2022-10-22T19:16:42.857Z,11.70
2022-10-22T19:19:11.281Z,13.50
2022-10-22T19:21:38.931Z,12.90
2022-10-22T19:24:06.892Z,11.90
2022-10-22T19:26:34.761Z,9.80
2022-10-22T19:29:02.929Z,10.20
2022-10-22T19:31:31.283Z,10.10
2022-10-22T19:34:01.288Z,11.60
2022-10-22T19:36:32.535Z,9.90
2022-10-22T19:39:00.917Z,10.70
2022-10-22T19:41:30.578Z,9.50
2022-10-22T19:43:59.761Z,10.40
2022-10-22T19:46:29.674Z,10.60
2022-10-22T19:48:57.501Z,10.90
2022-10-22T19:51:29.766Z,9.70
2022-10-22T19:53:59.831Z,9.40
2022-10-22T19:56:28.778Z,10.70
2022-10-22T19:58:57.027Z,9.60
2022-10-22T20:01:25.877Z,9.20
2022-10-22T20:03:53.964Z,11.00
2022-10-22T20:06:21.977Z,11.10
2022-10-22T20:08:52.384Z,10.30
2022-10-22T20:11:27.412Z,9.90
2022-10-22T20:13:56.614Z,10.80
2022-10-22T20:16:28.584Z,7.50
2022-10-22T20:19:00.951Z,8.00
2022-10-22T20:21:28.789Z,10.20
2022-10-22T20:23:57.574Z,10.40
2022-10-22T20:26:28.179Z,9.50
2022-10-22T20:28:57.183Z,7.40
2022-10-22T20:31:28.584Z,7.80
2022-10-22T20:33:58.926Z,7.90
2022-10-22T20:36:27.715Z,9.60
2022-10-22T20:39:00.269Z,10.10
2022-10-22T20:41:29.353Z,8.00
2022-10-22T20:43:57.510Z,9.40
2022-10-22T20:46:30.877Z,9.00
2022-10-22T20:49:00.951Z,6.80
2022-10-22T20:51:28.673Z,8.70
2022-10-22T20:53:57.063Z,8.30
2022-10-22T20:56:24.799Z,8.80
2022-10-22T20:59:03.874Z,9.20
2022-10-22T21:01:52.328Z,10.20
2022-10-22T21:04:21.760Z,8.50
2022-10-22T21:06:50.475Z,7.90
2022-10-22T21:09:18.214Z,8.50
2022-10-22T21:11:47.069Z,8.10
2022-10-22T21:14:16.976Z,8.00
2022-10-22T21:16:49.233Z,9.50
2022-10-22T21:19:21.829Z,10.80
2022-10-22T21:21:49.787Z,8.40
2022-10-22T21:24:17.501Z,7.80
2022-10-22T21:26:45.213Z,8.60
2022-10-22T21:29:16.072Z,8.40
2022-10-22T21:31:43.888Z,10.40
2022-10-22T21:34:17.149Z,9.00
2022-10-22T21:36:44.995Z,9.70
2022-10-22T21:39:15.353Z,9.50
2022-10-22T21:41:42.941Z,9.80
2022-10-22T21:44:10.582Z,7.30
2022-10-22T21:46:38.362Z,9.60
2022-10-22T21:49:06.118Z,9.80
2022-10-22T21:51:35.807Z,8.10
2022-10-22T21:54:04.142Z,11.50
2022-10-22T21:56:34.550Z,9.00
2022-10-22T21:59:04.265Z,6.90
2022-10-22T22:01:32.080Z,9.30
2022-10-22T22:03:59.901Z,9.20
2022-10-22T22:06:32.060Z,7.30
2022-10-22T22:09:03.209Z,9.10
2022-10-22T22:11:31.134Z,11.60
2022-10-22T22:13:59.554Z,10.00
2022-10-22T22:16:30.715Z,6.30
2022-10-22T22:19:00.242Z,9.80
2022-10-22T22:21:28.105Z,9.00
2022-10-22T22:23:57.283Z,7.70
2022-10-22T22:26:29.614Z,12.30
2022-10-22T22:28:59.407Z,10.10
2022-10-22T22:31:33.986Z,9.60
2022-10-22T22:34:07.814Z,10.30
2022-10-22T22:36:38.624Z,7.90
2022-10-22T22:39:08.378Z,8.50
2022-10-22T22:41:36.042Z,6.70
2022-10-22T22:44:03.984Z,8.60
2022-10-22T22:46:31.829Z,10.40
2022-10-22T22:48:59.728Z,9.90
2022-10-22T22:51:27.629Z,8.80
2022-10-22T22:53:57.636Z,7.40
2022-10-22T22:56:27.863Z,7.20
2022-10-22T22:58:56.480Z,8.50
2022-10-22T23:01:30.710Z,7.70
2022-10-22T23:04:07.071Z,8.90
2022-10-22T23:06:38.993Z,9.20
2022-10-22T23:09:09.495Z,8.30
2022-10-22T23:11:37.466Z,8.60
2022-10-22T23:14:07.271Z,6.80
2022-10-22T23:16:37.296Z,7.70
2022-10-22T23:19:05.803Z,8.40
2022-10-22T23:21:39.295Z,10.70
2022-10-22T23:24:11.435Z,9.50
2022-10-22T23:26:42.690Z,6.60
2022-10-22T23:29:16.324Z,9.10
2022-10-22T23:31:45.057Z,8.90
2022-10-22T23:34:17.127Z,8.30
2022-10-22T23:36:45.492Z,7.60
2022-10-22T23:39:17.008Z,8.70
2022-10-22T23:41:45.215Z,9.30
2022-10-22T23:44:13.438Z,9.60
2022-10-22T23:46:41.069Z,9.10
2022-10-22T23:49:09.611Z,9.70
2022-10-22T23:51:38.260Z,7.80
2022-10-22T23:54:08.711Z,10.00
2022-10-22T23:56:36.709Z,9.80
2022-10-22T23:59:04.930Z,8.30
